Time;durP1;ratioP1;P1;durP2;ratioP2;P2;SDS_P1;SDS_P2;PMS_P1;PMS_P2;Temp;Humidity;BMP_temperature;BMP_pressure;BME280_temperature;BME280_humidity;BME280_pressure;Samples;Min_cycle;Max_cycle;Signal;HPM_P1;HPM_P2
2021/05/06 00:02:18;;;;;;;5.90;3.55;;;9.50;99.90;;;;;;4955560;28;20179;-83
2021/05/06 00:10:38;;;;;;;5.03;3.17;;;9.20;99.90;;;;;;4951309;28;20042;-83
2021/05/06 00:32:18;;;;;;;7.15;3.72;;;8.80;99.90;;;;;;4942330;29;20435;-83
2021/05/06 00:34:43;;;;;;;4.75;3.67;;;9.00;99.90;;;;;;4981026;28;20140;-83
2021/05/06 00:37:10;;;;;;;6.97;4.32;;;8.60;99.90;;;;;;5029878;28;20112;-83
2021/05/06 00:39:40;;;;;;;4.00;3.55;;;8.60;99.90;;;;;;5030953;28;20064;-83
2021/05/06 00:45:25;;;;;;;7.45;3.85;;;8.50;99.90;;;;;;5029334;28;20515;-83
2021/05/06 01:01:39;;;;;;;7.65;3.50;;;8.30;99.90;;;;;;5028328;28;20112;-83
2021/05/06 01:04:22;;;;;;;4.53;3.10;;;8.30;99.90;;;;;;5029425;28;20402;-83
2021/05/06 01:09:40;;;;;;;6.53;3.15;;;8.50;99.90;;;;;;5033694;28;20040;-83
2021/05/06 01:12:06;;;;;;;4.45;3.35;;;8.40;99.90;;;;;;5032772;28;20010;-83
2021/05/06 01:14:33;;;;;;;8.43;3.13;;;8.30;99.90;;;;;;5033450;28;20037;-83
2021/05/06 01:16:58;;;;;;;5.90;3.20;;;8.20;99.90;;;;;;5033527;28;20021;-83
2021/05/06 01:19:24;;;;;;;6.25;3.50;;;8.30;99.90;;;;;;5033296;28;20533;-83
2021/05/06 01:21:53;;;;;;;6.90;3.30;;;8.30;99.90;;;;;;5034580;28;20025;-82
2021/05/06 01:24:18;;;;;;;5.80;3.28;;;8.30;99.90;;;;;;5032236;28;20109;-83
2021/05/06 01:26:56;;;;;;;5.80;3.17;;;8.20;99.90;;;;;;5033597;28;20045;-83
2021/05/06 01:29:27;;;;;;;6.55;2.95;;;8.60;99.90;;;;;;5032755;28;20478;-83
2021/05/06 01:34:40;;;;;;;6.63;3.45;;;8.20;99.90;;;;;;5047703;28;20049;-83
2021/05/06 01:37:47;;;;;;;5.18;3.22;;;8.20;99.90;;;;;;5049252;28;20044;-83
2021/05/06 01:43:27;;;;;;;5.88;3.58;;;8.10;99.90;;;;;;5052063;28;20025;-83
2021/05/06 01:58:34;;;;;;;6.28;3.35;;;8.00;99.90;;;;;;5032500;28;20131;-83
2021/05/06 02:01:06;;;;;;;6.13;3.15;;;8.00;99.90;;;;;;5049888;28;20032;-83
2021/05/06 02:03:33;;;;;;;4.97;3.22;;;8.10;99.90;;;;;;5049153;28;20074;-83
2021/05/06 02:05:59;;;;;;;6.00;3.45;;;8.20;99.90;;;;;;5046807;28;20040;-83
2021/05/06 02:08:25;;;;;;;6.68;3.47;;;8.20;99.90;;;;;;5047668;28;20463;-83
2021/05/06 02:10:55;;;;;;;8.55;4.13;;;8.20;99.90;;;;;;5044800;28;20033;-83
2021/05/06 02:13:21;;;;;;;9.35;3.72;;;8.10;99.90;;;;;;5032250;28;20026;-83
2021/05/06 02:15:55;;;;;;;8.43;4.43;;;8.00;99.90;;;;;;5034715;28;20175;-83
2021/05/06 02:18:21;;;;;;;5.82;3.85;;;8.10;99.90;;;;;;5032749;28;20033;-83
2021/05/06 02:20:48;;;;;;;6.05;3.85;;;8.60;99.90;;;;;;5029614;28;20017;-83
2021/05/06 02:23:14;;;;;;;4.13;3.70;;;8.20;99.90;;;;;;5032660;28;20049;-83
2021/05/06 02:25:39;;;;;;;9.75;4.15;;;8.20;99.90;;;;;;5032269;28;20022;-83
2021/05/06 02:28:05;;;;;;;5.43;3.85;;;8.10;99.90;;;;;;5031765;28;20482;-83
2021/05/06 02:30:31;;;;;;;5.95;4.10;;;8.40;99.90;;;;;;5034525;28;20029;-82
2021/05/06 02:32:56;;;;;;;6.38;3.28;;;8.30;99.90;;;;;;5031789;28;20088;-83
2021/05/06 02:35:22;;;;;;;7.55;3.38;;;8.40;99.90;;;;;;5031470;28;20025;-83
2021/05/06 02:37:48;;;;;;;4.57;3.40;;;8.40;99.90;;;;;;5031927;28;20034;-83
2021/05/06 02:40:14;;;;;;;5.85;3.25;;;8.40;99.90;;;;;;5032195;28;20025;-83
2021/05/06 02:42:40;;;;;;;8.50;3.65;;;8.40;99.90;;;;;;5033693;28;20038;-84
2021/05/06 02:45:08;;;;;;;6.30;3.10;;;8.40;99.90;;;;;;5031590;28;20036;-83
2021/05/06 02:47:34;;;;;;;5.07;3.10;;;8.50;99.90;;;;;;5032124;28;20026;-83
2021/05/06 02:49:59;;;;;;;6.80;3.10;;;8.30;99.90;;;;;;5031343;28;20083;-83
2021/05/06 02:55:02;;;;;;;5.63;2.95;;;8.20;99.90;;;;;;5033167;28;20038;-83
2021/05/06 02:57:52;;;;;;;5.05;3.10;;;8.20;99.90;;;;;;5033365;28;20029;-83
2021/05/06 03:03:03;;;;;;;7.82;3.35;;;8.20;99.90;;;;;;5031507;28;20044;-83
2021/05/06 03:05:31;;;;;;;5.85;3.80;;;8.30;99.90;;;;;;5030569;28;20029;-83
2021/05/06 03:10:39;;;;;;;7.43;3.60;;;8.30;99.90;;;;;;5031908;28;20025;-83
2021/05/06 03:14:05;;;;;;;7.38;3.50;;;8.30;99.90;;;;;;5030933;28;20060;-83
2021/05/06 03:23:53;;;;;;;6.68;3.30;;;8.00;99.90;;;;;;5030763;28;20067;-83
2021/05/06 03:26:18;;;;;;;6.13;3.38;;;8.20;99.90;;;;;;5030752;28;20057;-83
2021/05/06 03:28:55;;;;;;;5.38;3.60;;;8.20;99.90;;;;;;5029453;28;20044;-83
2021/05/06 03:31:50;;;;;;;5.47;3.42;;;8.30;99.90;;;;;;5015746;28;20380;-83
2021/05/06 03:42:36;;;;;;;4.53;3.08;;;8.20;99.90;;;;;;5030230;28;20076;-83
2021/05/06 03:45:35;;;;;;;5.82;3.00;;;8.30;99.90;;;;;;5030524;28;20397;-82
2021/05/06 04:28:19;;;;;;;7.30;3.13;;;9.00;99.90;;;;;;5048001;28;20024;-83
2021/05/06 04:36:03;;;;;;;6.25;2.80;;;8.90;99.90;;;;;;5037726;28;20062;-83
2021/05/06 04:38:29;;;;;;;7.60;2.50;;;8.70;99.90;;;;;;5038795;28;20547;-83
2021/05/06 04:41:12;;;;;;;7.57;3.05;;;8.80;99.90;;;;;;5044951;28;20021;-83
2021/05/06 05:03:21;;;;;;;6.32;2.78;;;9.20;99.90;;;;;;5029469;28;20489;-83
2021/05/06 05:04:38;;;;;;;4.35;2.72;;;9.30;99.90;;;;;;5015125;28;20128;-84
2021/05/06 05:23:38;;;;;;;3.05;2.00;;;10.20;99.90;;;;;;4980629;28;20046;-85
2021/05/06 05:26:07;;;;;;;4.32;2.20;;;10.40;99.90;;;;;;4973878;28;20506;-84
2021/05/06 05:28:33;;;;;;;6.30;2.88;;;10.90;99.90;;;;;;4971474;28;20030;-85
2021/05/06 05:30:58;;;;;;;3.03;2.22;;;10.50;99.90;;;;;;4972197;28;20039;-84
2021/05/06 05:33:26;;;;;;;5.97;2.92;;;10.70;99.90;;;;;;4974338;28;20101;-85
2021/05/06 05:36:03;;;;;;;4.60;2.13;;;10.70;99.90;;;;;;4974399;28;20539;-86
2021/05/06 05:38:47;;;;;;;2.92;2.00;;;11.30;99.90;;;;;;4973990;28;20090;-88
2021/05/06 05:56:40;;;;;;;5.65;2.47;;;11.20;99.90;;;;;;4990153;28;20461;-83
2021/05/06 05:59:07;;;;;;;4.40;2.53;;;11.50;99.90;;;;;;5032714;28;20021;-82
2021/05/06 06:01:33;;;;;;;7.00;2.60;;;11.20;99.90;;;;;;5032970;28;20037;-83
2021/05/06 06:03:59;;;;;;;5.78;2.22;;;11.40;99.90;;;;;;5033595;28;20037;-84
2021/05/06 06:06:25;;;;;;;5.90;2.78;;;11.40;99.90;;;;;;5033501;28;20539;-83
2021/05/06 06:08:51;;;;;;;6.97;2.40;;;11.70;99.90;;;;;;5031047;28;20025;-83
2021/05/06 06:11:18;;;;;;;4.72;2.00;;;11.40;99.90;;;;;;5032352;28;20076;-86
2021/05/06 06:13:48;;;;;;;6.55;2.33;;;11.50;99.90;;;;;;5030621;28;20083;-86
2021/05/06 06:18:59;;;;;;;5.68;2.47;;;11.60;99.90;;;;;;5030230;28;20029;-84
2021/05/06 06:21:32;;;;;;;4.68;2.40;;;11.60;99.90;;;;;;5033707;28;20037;-84
2021/05/06 06:23:58;;;;;;;6.57;2.72;;;11.80;99.90;;;;;;5030093;28;20072;-83
2021/05/06 06:26:25;;;;;;;3.97;2.00;;;11.80;99.90;;;;;;5032671;28;20056;-85
2021/05/06 06:28:54;;;;;;;3.90;2.10;;;12.20;99.90;;;;;;5031933;28;20068;-86
2021/05/06 06:33:45;;;;;;;5.78;1.85;;;12.10;99.90;;;;;;5029989;28;20057;-86
2021/05/06 06:36:11;;;;;;;3.90;2.00;;;12.50;99.90;;;;;;5032273;28;20029;-83
2021/05/06 06:38:37;;;;;;;2.58;1.50;;;12.30;99.90;;;;;;5031489;28;20032;-86
2021/05/06 06:41:04;;;;;;;6.45;2.63;;;12.40;99.90;;;;;;5032129;28;20103;-86
2021/05/06 06:43:31;;;;;;;4.85;2.10;;;12.80;99.90;;;;;;5031074;28;20029;-82
2021/05/06 06:45:57;;;;;;;5.15;1.98;;;12.40;99.90;;;;;;5032759;28;20024;-82
2021/05/06 06:48:23;;;;;;;4.50;2.08;;;12.40;99.90;;;;;;5032485;28;20025;-82
2021/05/06 06:50:49;;;;;;;6.05;1.98;;;12.90;99.90;;;;;;5031104;28;20033;-82
2021/05/06 06:53:16;;;;;;;4.53;1.90;;;12.70;99.90;;;;;;5030033;28;20059;-82
2021/05/06 06:55:42;;;;;;;4.35;1.55;;;13.00;99.90;;;;;;5031605;28;20026;-84
2021/05/06 06:58:12;;;;;;;4.45;2.13;;;12.50;99.90;;;;;;5031145;28;20033;-83
2021/05/06 07:00:39;;;;;;;4.32;1.67;;;12.40;99.90;;;;;;5033928;28;20025;-83
2021/05/06 07:03:06;;;;;;;5.65;1.60;;;12.40;99.90;;;;;;5030734;28;20030;-83
2021/05/06 07:05:32;;;;;;;4.15;1.80;;;12.70;99.90;;;;;;5030657;28;20026;-85
2021/05/06 07:08:21;;;;;;;3.40;1.90;;;12.80;99.90;;;;;;5031339;28;20021;-89
2021/05/06 07:10:48;;;;;;;3.38;1.80;;;12.70;99.90;;;;;;5030829;28;20486;-86
2021/05/06 07:13:16;;;;;;;2.38;1.42;;;13.10;99.90;;;;;;5031342;28;20388;-86
2021/05/06 07:15:54;;;;;;;4.43;1.40;;;12.60;99.90;;;;;;5033879;28;20026;-87
2021/05/06 07:18:20;;;;;;;4.45;1.90;;;12.70;99.90;;;;;;5029257;28;20033;-85
2021/05/06 07:20:47;;;;;;;3.53;1.40;;;12.80;99.90;;;;;;5030552;28;20556;-85
2021/05/06 07:23:15;;;;;;;4.55;1.60;;;13.20;99.90;;;;;;5030801;28;20034;-86
2021/05/06 07:25:40;;;;;;;3.67;1.33;;;12.80;99.90;;;;;;5029652;28;20025;-85
2021/05/06 07:28:09;;;;;;;3.75;1.40;;;13.30;99.90;;;;;;5029961;28;20037;-85
2021/05/06 07:30:35;;;;;;;2.72;1.40;;;13.30;99.90;;;;;;5033147;28;20021;-85
2021/05/06 07:33:00;;;;;;;4.90;1.50;;;12.80;99.90;;;;;;5029583;28;20080;-86
2021/05/06 07:35:26;;;;;;;3.65;1.25;;;13.00;99.90;;;;;;5029353;28;20026;-85
2021/05/06 07:37:51;;;;;;;3.20;1.67;;;13.40;99.90;;;;;;5031200;28;20098;-86
2021/05/06 07:40:17;;;;;;;4.85;1.52;;;13.40;99.90;;;;;;5028170;28;20057;-86
2021/05/06 07:42:43;;;;;;;4.03;1.58;;;13.00;99.90;;;;;;5032796;28;20022;-85
2021/05/06 07:45:09;;;;;;;2.05;1.50;;;13.00;99.90;;;;;;5031012;28;20107;-86
2021/05/06 07:47:35;;;;;;;5.68;1.48;;;13.00;99.90;;;;;;5029959;28;20546;-85
2021/05/06 07:50:01;;;;;;;3.10;1.33;;;13.30;99.90;;;;;;5030752;28;20108;-85
2021/05/06 07:52:27;;;;;;;5.05;1.80;;;13.30;99.90;;;;;;5030852;28;20025;-86
2021/05/06 07:54:54;;;;;;;3.90;1.40;;;13.60;99.90;;;;;;5031761;28;20037;-85
2021/05/06 07:57:20;;;;;;;4.82;1.80;;;13.10;99.90;;;;;;5031014;28;20101;-86
2021/05/06 07:59:45;;;;;;;3.55;1.70;;;13.20;99.90;;;;;;5030570;28;20116;-86
2021/05/06 08:02:11;;;;;;;2.88;1.27;;;13.60;99.90;;;;;;5029947;28;20029;-86
2021/05/06 08:04:37;;;;;;;5.05;1.70;;;13.10;99.90;;;;;;5030860;28;20025;-85
2021/05/06 08:07:03;;;;;;;2.80;1.35;;;13.30;99.90;;;;;;5030643;28;20029;-86
2021/05/06 08:09:28;;;;;;;3.05;1.45;;;13.20;99.90;;;;;;5029652;28;20025;-85
2021/05/06 08:11:58;;;;;;;4.05;1.48;;;12.80;99.90;;;;;;5028811;28;20056;-86
2021/05/06 08:14:24;;;;;;;4.15;1.13;;;13.20;99.90;;;;;;5030803;28;20025;-86
2021/05/06 08:16:50;;;;;;;5.18;1.60;;;12.70;99.90;;;;;;5029295;28;20040;-85
2021/05/06 08:19:15;;;;;;;2.92;1.50;;;12.70;99.90;;;;;;5030771;28;20097;-86
2021/05/06 08:21:41;;;;;;;3.33;1.65;;;12.90;99.90;;;;;;5032204;28;20029;-86
2021/05/06 08:24:07;;;;;;;5.10;1.65;;;12.60;99.90;;;;;;5029813;28;20124;-86
2021/05/06 08:26:35;;;;;;;2.58;1.23;;;12.70;99.90;;;;;;5030032;28;20025;-86
2021/05/06 08:29:01;;;;;;;2.58;1.48;;;12.70;99.90;;;;;;5029825;28;20033;-86
2021/05/06 08:31:26;;;;;;;8.40;1.77;;;12.80;99.90;;;;;;5028372;28;20029;-85
2021/05/06 08:33:52;;;;;;;4.15;1.80;;;13.00;99.90;;;;;;5032027;28;20037;-85
2021/05/06 08:36:18;;;;;;;4.53;1.60;;;12.60;99.90;;;;;;5030621;28;20025;-86
2021/05/06 08:38:44;;;;;;;4.05;1.45;;;13.20;99.90;;;;;;5029410;28;20120;-85
2021/05/06 08:41:09;;;;;;;2.63;1.30;;;12.80;99.90;;;;;;5029705;28;20025;-86
2021/05/06 08:43:38;;;;;;;3.50;1.50;;;12.80;99.90;;;;;;5030173;28;20087;-86
2021/05/06 08:46:04;;;;;;;4.50;1.35;;;12.80;99.90;;;;;;5030908;28;20060;-86
2021/05/06 08:48:30;;;;;;;4.78;1.60;;;13.00;99.90;;;;;;5030304;28;20033;-85
2021/05/06 08:50:57;;;;;;;7.18;1.30;;;12.60;99.90;;;;;;5028207;28;20029;-86
2021/05/06 08:53:23;;;;;;;3.90;1.35;;;12.80;99.90;;;;;;5029438;28;20057;-86
2021/05/06 08:55:53;;;;;;;6.10;1.60;;;13.40;99.90;;;;;;5030223;28;20055;-86
2021/05/06 08:58:18;;;;;;;3.83;1.50;;;13.40;99.90;;;;;;5014339;28;20121;-86
2021/05/06 09:00:44;;;;;;;2.95;1.38;;;12.80;99.90;;;;;;5031584;28;20093;-85
2021/05/06 09:03:10;;;;;;;2.03;1.20;;;13.00;99.90;;;;;;5029452;28;20037;-86
2021/05/06 09:05:36;;;;;;;4.05;1.27;;;13.30;99.90;;;;;;5029473;28;20029;-86
2021/05/06 09:08:02;;;;;;;2.22;1.30;;;13.10;99.90;;;;;;5028875;28;20030;-86
2021/05/06 09:10:35;;;;;;;3.22;1.55;;;13.60;99.90;;;;;;5028898;28;20030;-86
2021/05/06 09:13:01;;;;;;;2.47;1.35;;;13.60;99.90;;;;;;5029927;28;20083;-86
2021/05/06 09:15:27;;;;;;;3.80;1.52;;;13.20;99.90;;;;;;5030482;28;20108;-85
2021/05/06 09:17:53;;;;;;;4.93;1.35;;;13.20;99.90;;;;;;5029282;28;20617;-86
2021/05/06 09:20:22;;;;;;;2.42;1.20;;;13.30;99.90;;;;;;5029699;28;20549;-86
2021/05/06 09:22:56;;;;;;;3.00;1.67;;;13.60;99.90;;;;;;5029524;28;20036;-86
2021/05/06 09:25:24;;;;;;;4.25;1.30;;;13.40;99.90;;;;;;5014174;28;20018;-86
2021/05/06 09:28:10;;;;;;;2.10;1.13;;;13.70;99.90;;;;;;5031094;28;20033;-86
2021/05/06 09:30:47;;;;;;;1.75;1.05;;;13.60;99.90;;;;;;5034909;28;20026;-86
2021/05/06 09:33:13;;;;;;;3.95;1.60;;;13.80;99.90;;;;;;5032888;28;20088;-85
2021/05/06 09:35:49;;;;;;;5.10;1.17;;;13.70;99.90;;;;;;5032869;28;20069;-86
2021/05/06 09:38:27;;;;;;;3.47;1.33;;;13.60;99.90;;;;;;5033350;28;20104;-85
2021/05/06 09:40:53;;;;;;;5.78;1.50;;;13.70;99.90;;;;;;5033144;28;20060;-86
2021/05/06 09:43:27;;;;;;;2.42;1.27;;;13.60;99.90;;;;;;5033138;28;20030;-86
2021/05/06 09:45:54;;;;;;;2.50;0.95;;;14.10;99.90;;;;;;5032443;28;20112;-86
2021/05/06 09:48:21;;;;;;;3.60;1.40;;;13.60;99.90;;;;;;5033765;28;20049;-86
2021/05/06 09:51:01;;;;;;;2.97;1.23;;;13.70;99.90;;;;;;5030106;28;20029;-86
2021/05/06 09:53:31;;;;;;;2.88;1.10;;;13.80;99.90;;;;;;5033167;28;20017;-86
2021/05/06 09:55:59;;;;;;;3.90;0.93;;;14.10;99.90;;;;;;5032815;28;20037;-85
2021/05/06 09:58:31;;;;;;;2.03;1.10;;;14.20;99.90;;;;;;5034079;28;20040;-86
2021/05/06 10:00:57;;;;;;;0.88;0.77;;;14.20;99.90;;;;;;5034001;28;20377;-86
2021/05/06 10:03:32;;;;;;;3.65;1.00;;;14.20;99.90;;;;;;5034165;28;20048;-86
2021/05/06 10:05:57;;;;;;;3.00;1.33;;;14.40;99.90;;;;;;5032122;28;20040;-86
2021/05/06 10:08:33;;;;;;;3.60;1.15;;;14.20;99.90;;;;;;5031074;28;20390;-86
2021/05/06 10:11:09;;;;;;;3.30;1.13;;;14.20;99.90;;;;;;5032432;28;20029;-86
2021/05/06 10:13:38;;;;;;;5.38;1.50;;;14.30;99.90;;;;;;5033019;28;20033;-86
2021/05/06 10:16:04;;;;;;;6.13;1.40;;;14.20;99.90;;;;;;5033684;28;20044;-85
2021/05/06 10:18:30;;;;;;;2.80;1.13;;;14.30;99.90;;;;;;5031163;28;20065;-86
2021/05/06 10:20:56;;;;;;;10.25;2.80;;;14.20;99.90;;;;;;5031729;28;20115;-86
2021/05/06 10:23:23;;;;;;;4.28;1.25;;;14.40;99.90;;;;;;5032391;28;20130;-85
2021/05/06 10:25:52;;;;;;;2.30;1.25;;;14.70;99.90;;;;;;5032223;28;20026;-86
2021/05/06 10:28:18;;;;;;;2.92;1.45;;;14.50;99.90;;;;;;5016719;28;20022;-86
2021/05/06 10:30:44;;;;;;;4.22;1.38;;;14.40;99.90;;;;;;5034429;28;20040;-86
2021/05/06 10:33:10;;;;;;;3.55;1.67;;;14.40;99.90;;;;;;5031935;28;20478;-86
2021/05/06 10:35:36;;;;;;;3.40;1.35;;;14.40;99.90;;;;;;5031480;28;20052;-86
2021/05/06 10:38:02;;;;;;;3.70;1.30;;;14.30;99.90;;;;;;5032133;28;20029;-85
2021/05/06 10:40:35;;;;;;;5.25;1.75;;;14.50;99.90;;;;;;5031547;28;20021;-85
2021/05/06 10:43:50;;;;;;;2.55;1.20;;;14.70;99.90;;;;;;5033324;28;20041;-86
2021/05/06 10:46:16;;;;;;;5.55;1.88;;;14.70;99.90;;;;;;5025855;28;20038;-85
2021/05/06 10:48:53;;;;;;;2.95;1.20;;;14.70;99.90;;;;;;5015666;28;20033;-87
2021/05/06 10:51:27;;;;;;;2.70;1.30;;;14.60;99.90;;;;;;5014059;28;20069;-86
2021/05/06 10:53:52;;;;;;;3.03;1.67;;;14.70;99.90;;;;;;5015065;28;20026;-86
2021/05/06 10:56:18;;;;;;;5.53;1.55;;;14.90;99.90;;;;;;4998151;28;20407;-86
2021/05/06 10:58:44;;;;;;;3.25;1.27;;;15.00;99.90;;;;;;5009857;28;20569;-86
2021/05/06 11:01:14;;;;;;;3.88;1.20;;;15.00;99.90;;;;;;5026406;28;20515;-87
2021/05/06 11:03:41;;;;;;;5.38;1.40;;;14.80;99.90;;;;;;5016204;28;20061;-85
2021/05/06 11:06:11;;;;;;;4.70;1.58;;;15.30;99.90;;;;;;5014312;28;20049;-84
2021/05/06 11:08:37;;;;;;;6.28;1.60;;;15.20;99.90;;;;;;5014545;28;20041;-86
2021/05/06 11:11:03;;;;;;;1.95;1.02;;;15.00;99.90;;;;;;5011261;28;20069;-85
2021/05/06 11:13:58;;;;;;;2.42;1.10;;;14.90;99.90;;;;;;5025242;28;20041;-86
2021/05/06 11:16:24;;;;;;;4.47;1.88;;;15.00;99.90;;;;;;5019219;28;20080;-86
2021/05/06 11:18:51;;;;;;;3.47;1.00;;;15.70;99.90;;;;;;5033383;28;20041;-86
2021/05/06 11:21:33;;;;;;;2.03;1.35;;;15.40;99.90;;;;;;5031910;28;20103;-86
2021/05/06 11:24:18;;;;;;;3.92;1.00;;;15.70;99.90;;;;;;5031584;28;20061;-86
2021/05/06 11:26:59;;;;;;;1.15;1.00;;;15.90;99.90;;;;;;5029960;28;20409;-86
2021/05/06 11:29:29;;;;;;;4.53;2.33;;;16.10;99.90;;;;;;5032441;28;20398;-86
2021/05/06 11:31:55;;;;;;;7.55;1.20;;;16.50;99.90;;;;;;5031474;28;20072;-86
2021/05/06 11:34:39;;;;;;;2.33;1.08;;;16.10;99.90;;;;;;5031524;28;20049;-87
2021/05/06 11:37:14;;;;;;;4.65;1.50;;;16.00;99.90;;;;;;5031767;28;20021;-86
2021/05/06 11:40:01;;;;;;;5.88;1.20;;;16.20;99.90;;;;;;5033275;28;20030;-86
2021/05/06 11:42:28;;;;;;;1.00;0.80;;;16.10;99.90;;;;;;5032728;28;20053;-86
2021/05/06 11:45:12;;;;;;;4.65;1.10;;;16.40;99.90;;;;;;5028715;28;20120;-86
2021/05/06 11:47:39;;;;;;;3.05;1.23;;;16.00;99.90;;;;;;5030690;28;20454;-86
2021/05/06 11:50:18;;;;;;;2.95;1.30;;;16.10;99.90;;;;;;5031159;28;20030;-85
2021/05/06 11:52:44;;;;;;;4.65;0.88;;;15.80;99.90;;;;;;5029875;28;20052;-86
2021/05/06 11:55:25;;;;;;;3.38;1.23;;;15.60;99.90;;;;;;5031505;28;20033;-86
2021/05/06 11:57:50;;;;;;;2.13;1.05;;;15.40;99.90;;;;;;5028433;28;20021;-86
2021/05/06 12:00:17;;;;;;;0.70;0.60;;;14.80;99.90;;;;;;5030681;28;20040;-86
2021/05/06 12:02:43;;;;;;;2.95;1.20;;;14.90;99.90;;;;;;5030397;28;20557;-86
2021/05/06 12:05:10;;;;;;;3.28;0.82;;;15.30;99.90;;;;;;5029381;28;20049;-87
2021/05/06 12:07:37;;;;;;;1.83;0.77;;;15.30;99.90;;;;;;5029532;28;20517;-86
2021/05/06 12:10:09;;;;;;;5.55;1.73;;;15.60;99.90;;;;;;5032070;28;20429;-86
2021/05/06 12:12:35;;;;;;;2.25;0.90;;;15.40;99.90;;;;;;5031400;28;20022;-87
2021/05/06 12:15:01;;;;;;;1.42;0.93;;;15.40;99.90;;;;;;5028411;28;20024;-86
2021/05/06 12:17:27;;;;;;;1.35;0.85;;;15.50;99.90;;;;;;5030234;28;20067;-87
2021/05/06 12:19:52;;;;;;;2.60;0.80;;;15.50;99.90;;;;;;5031044;28;20021;-86
2021/05/06 12:22:19;;;;;;;3.45;0.98;;;15.50;99.90;;;;;;5030359;28;20029;-87
2021/05/06 12:24:47;;;;;;;4.45;0.85;;;15.60;99.90;;;;;;5033312;28;20037;-86
2021/05/06 12:27:16;;;;;;;4.97;1.30;;;15.50;99.90;;;;;;5030405;28;20038;-86
2021/05/06 12:29:43;;;;;;;3.55;1.15;;;15.40;99.90;;;;;;5029917;28;20026;-86
2021/05/06 12:32:23;;;;;;;1.52;0.95;;;15.90;99.90;;;;;;5030249;28;20060;-86
2021/05/06 12:34:50;;;;;;;5.15;1.00;;;15.20;99.90;;;;;;5030888;28;20025;-86
2021/05/06 12:37:16;;;;;;;1.80;1.20;;;14.30;99.90;;;;;;5031017;28;20026;-86
2021/05/06 12:39:45;;;;;;;1.90;0.80;;;14.50;99.90;;;;;;5032422;28;20029;-86
2021/05/06 12:42:11;;;;;;;2.38;0.80;;;14.90;99.90;;;;;;5029996;28;20080;-87
2021/05/06 12:44:47;;;;;;;2.33;0.90;;;15.10;99.90;;;;;;5028329;28;20053;-86
2021/05/06 12:47:29;;;;;;;2.88;1.10;;;15.20;99.90;;;;;;5030345;28;20042;-87
2021/05/06 12:50:11;;;;;;;1.98;1.00;;;14.70;99.90;;;;;;5030630;28;20217;-87
2021/05/06 12:52:38;;;;;;;1.70;1.10;;;14.30;99.90;;;;;;5030310;28;20025;-87
2021/05/06 12:55:31;;;;;;;2.83;1.00;;;14.90;99.90;;;;;;5031614;28;20108;-87
2021/05/06 12:58:19;;;;;;;1.60;0.90;;;15.20;99.90;;;;;;5030263;28;20433;-87
2021/05/06 13:01:00;;;;;;;1.17;0.90;;;15.30;99.90;;;;;;5031777;28;20413;-84
2021/05/06 13:03:31;;;;;;;3.22;1.10;;;15.20;99.90;;;;;;5032554;28;20064;-84
2021/05/06 13:06:03;;;;;;;4.32;1.27;;;15.20;99.90;;;;;;5033346;28;20028;-85
2021/05/06 13:08:37;;;;;;;2.00;1.10;;;14.40;99.90;;;;;;5034095;28;20029;-84
2021/05/06 13:11:04;;;;;;;3.20;1.08;;;12.70;99.90;;;;;;5033712;28;20029;-84
2021/05/06 13:13:44;;;;;;;4.50;1.30;;;12.70;37.00;;;;;;5033747;28;20035;-84
2021/05/06 13:16:16;;;;;;;2.95;1.10;;;12.50;99.90;;;;;;5034126;28;20402;-84
2021/05/06 13:18:58;;;;;;;3.50;1.55;;;12.30;99.90;;;;;;5036577;28;20026;-84
2021/05/06 13:21:24;;;;;;;3.25;1.20;;;12.80;99.90;;;;;;5034835;28;20029;-84
2021/05/06 13:23:53;;;;;;;1.20;1.00;;;13.30;99.90;;;;;;5032686;28;20128;-85
2021/05/06 13:26:31;;;;;;;2.38;1.27;;;13.20;1.00;;;;;;5033992;28;20029;-84
2021/05/06 13:29:17;;;;;;;4.90;1.30;;;13.50;1.00;;;;;;5033046;28;20065;-84
2021/05/06 13:31:48;;;;;;;2.53;1.13;;;12.80;1.00;;;;;;5033679;28;20017;-84
2021/05/06 13:34:20;;;;;;;4.55;1.42;;;12.30;1.00;;;;;;5034098;28;20042;-84
2021/05/06 13:36:49;;;;;;;5.05;1.50;;;12.30;99.90;;;;;;5031854;28;20474;-84
2021/05/06 13:39:15;;;;;;;2.53;1.35;;;12.50;99.90;;;;;;5033357;28;20073;-84
2021/05/06 13:41:45;;;;;;;3.30;1.50;;;12.50;99.90;;;;;;5033302;28;20029;-86
2021/05/06 13:44:15;;;;;;;3.08;1.55;;;13.20;95.30;;;;;;5031916;28;20219;-86
2021/05/06 13:46:47;;;;;;;3.13;1.33;;;13.10;1.00;;;;;;5033022;28;20036;-86
2021/05/06 13:49:13;;;;;;;4.45;1.65;;;13.40;1.00;;;;;;5033240;28;20026;-86
2021/05/06 13:51:39;;;;;;;2.28;1.10;;;13.70;1.00;;;;;;5035114;28;20025;-86
2021/05/06 13:54:04;;;;;;;5.22;1.38;;;13.90;1.00;;;;;;5032841;28;20044;-87
2021/05/06 13:56:30;;;;;;;1.95;1.27;;;13.80;1.00;;;;;;5033434;28;20121;-86
2021/05/06 13:58:55;;;;;;;4.28;1.48;;;14.00;1.00;;;;;;5032749;28;20036;-87
2021/05/06 14:01:21;;;;;;;2.08;1.30;;;13.60;1.00;;;;;;5031908;28;20489;-87
2021/05/06 14:03:47;;;;;;;2.55;1.30;;;14.70;1.00;;;;;;5035437;28;20044;-87
2021/05/06 14:06:13;;;;;;;2.70;1.15;;;14.80;99.90;;;;;;5033578;28;20120;-87
2021/05/06 14:08:39;;;;;;;2.33;1.10;;;14.80;99.90;;;;;;5032945;28;20021;-87
2021/05/06 14:11:05;;;;;;;3.75;1.35;;;14.70;99.90;;;;;;5033139;28;20029;-87
2021/05/06 14:13:33;;;;;;;3.35;1.27;;;14.90;99.90;;;;;;5033197;28;20025;-87
2021/05/06 14:15:59;;;;;;;2.45;1.23;;;14.90;99.90;;;;;;5032991;28;20055;-86
2021/05/06 14:18:26;;;;;;;1.75;1.27;;;15.10;99.90;;;;;;5032388;28;20029;-87
2021/05/06 14:20:53;;;;;;;2.47;1.20;;;15.20;99.90;;;;;;5032875;28;20493;-87
2021/05/06 14:23:20;;;;;;;1.88;1.17;;;15.30;99.90;;;;;;5032887;28;20033;-87
2021/05/06 14:25:48;;;;;;;2.33;1.27;;;15.30;99.90;;;;;;5033332;28;20108;-87
2021/05/06 14:28:13;;;;;;;4.65;1.40;;;15.80;99.90;;;;;;5033214;28;20033;-87
2021/05/06 14:30:39;;;;;;;3.55;1.58;;;16.60;99.90;;;;;;5034666;28;20535;-87
2021/05/06 14:33:05;;;;;;;2.55;1.45;;;16.30;99.90;;;;;;5030850;28;20041;-87
2021/05/06 14:35:31;;;;;;;4.22;1.35;;;15.70;99.90;;;;;;5032558;28;20398;-87
2021/05/06 14:37:57;;;;;;;1.95;1.38;;;15.50;99.90;;;;;;5033062;28;20026;-87
2021/05/06 14:40:23;;;;;;;3.45;1.45;;;15.30;99.90;;;;;;5030915;28;20040;-87
2021/05/06 14:42:48;;;;;;;3.30;1.65;;;15.80;99.90;;;;;;5034386;28;20113;-87
2021/05/06 14:45:14;;;;;;;3.85;1.40;;;15.50;99.90;;;;;;5032408;28;20489;-87
2021/05/06 14:47:40;;;;;;;4.15;1.20;;;14.90;86.60;;;;;;5032742;28;20021;-87
2021/05/06 14:50:16;;;;;;;2.28;1.33;;;14.70;99.90;;;;;;5032378;28;20509;-87
2021/05/06 14:52:41;;;;;;;5.20;2.13;;;14.90;19.70;;;;;;5032280;28;20120;-87
2021/05/06 14:55:10;;;;;;;4.97;1.67;;;14.70;1.00;;;;;;5032185;28;20108;-87
2021/05/06 14:57:36;;;;;;;6.70;2.10;;;14.30;1.00;;;;;;5034001;28;20033;-87
2021/05/06 15:00:03;;;;;;;3.70;1.92;;;13.40;99.90;;;;;;5030111;28;20429;-87
2021/05/06 15:02:29;;;;;;;5.28;2.00;;;13.40;99.90;;;;;;5032177;28;20167;-87
2021/05/06 15:04:55;;;;;;;3.70;1.52;;;13.60;99.90;;;;;;5031854;28;20108;-87
2021/05/06 15:07:20;;;;;;;3.85;1.70;;;13.90;1.00;;;;;;5032180;28;20018;-86
2021/05/06 15:09:46;;;;;;;3.85;1.98;;;13.70;1.00;;;;;;5033512;28;20398;-86
2021/05/06 15:12:11;;;;;;;5.13;1.65;;;14.00;1.00;;;;;;5031814;28;20014;-87
2021/05/06 15:14:37;;;;;;;3.17;1.85;;;14.70;1.00;;;;;;5031585;28;20029;-86
2021/05/06 15:17:03;;;;;;;3.85;1.92;;;14.40;1.00;;;;;;5032232;28;20014;-87
2021/05/06 15:19:28;;;;;;;4.90;1.63;;;14.60;1.00;;;;;;5030247;28;20040;-87
2021/05/06 15:21:54;;;;;;;4.32;2.10;;;14.60;99.90;;;;;;5033075;28;20413;-87
2021/05/06 15:24:19;;;;;;;4.45;2.00;;;13.80;99.90;;;;;;5031961;28;20048;-87
2021/05/06 15:26:45;;;;;;;5.55;1.92;;;13.90;1.00;;;;;;5031199;28;20494;-87
2021/05/06 15:29:10;;;;;;;2.90;1.88;;;14.10;1.00;;;;;;5031717;28;20038;-87
2021/05/06 15:31:37;;;;;;;5.05;1.92;;;14.20;1.00;;;;;;5031304;28;20025;-87
2021/05/06 15:34:03;;;;;;;4.32;1.83;;;13.90;1.00;;;;;;5032595;28;20033;-87
2021/05/06 15:36:30;;;;;;;5.32;2.35;;;13.50;1.00;;;;;;5033001;28;20414;-86
2021/05/06 15:38:59;;;;;;;5.32;1.98;;;13.60;1.00;;;;;;5030946;28;20466;-86
2021/05/06 15:41:25;;;;;;;3.20;1.80;;;13.00;1.00;;;;;;5030082;28;20490;-86
2021/05/06 15:43:51;;;;;;;8.65;2.53;;;13.10;40.70;;;;;;5031650;28;20476;-86
2021/05/06 15:46:17;;;;;;;7.60;2.65;;;13.00;99.90;;;;;;5031487;28;20053;-87
2021/05/06 15:48:42;;;;;;;9.55;2.42;;;13.10;99.90;;;;;;5033569;28;20116;-86
2021/05/06 15:51:08;;;;;;;3.67;2.35;;;12.80;99.90;;;;;;5030649;28;20033;-87
2021/05/06 15:53:34;;;;;;;5.15;2.33;;;12.70;99.90;;;;;;5030831;28;20573;-87
2021/05/06 15:56:00;;;;;;;4.10;2.40;;;13.30;99.90;;;;;;5031070;28;20033;-87
2021/05/06 15:58:26;;;;;;;5.57;2.55;;;13.00;99.90;;;;;;5031519;28;20086;-87
2021/05/06 16:00:56;;;;;;;5.45;2.35;;;12.90;99.90;;;;;;5033021;28;20021;-87
2021/05/06 16:03:23;;;;;;;7.97;2.60;;;13.10;99.90;;;;;;5030226;28;20038;-87
2021/05/06 16:05:54;;;;;;;10.57;3.80;;;13.00;90.10;;;;;;5030823;28;20021;-87
2021/05/06 16:08:21;;;;;;;7.35;3.47;;;13.50;98.90;;;;;;5030414;28;20034;-87
2021/05/06 16:10:49;;;;;;;6.07;3.10;;;13.30;78.20;;;;;;5031112;28;20052;-86